Time;durP1;ratioP1;P1;durP2;ratioP2;P2;SDS_P1;SDS_P2;PMS_P1;PMS_P2;Temp;Humidity;BMP_temperature;BMP_pressure;BME280_temperature;BME280_humidity;BME280_pressure;Samples;Min_cycle;Max_cycle;Signal;HPM_P1;HPM_P2
2024/04/17 00:00:32;;;;;;;10.10;5.95;;;;;;;;;;5390018;26;19992;-62
2024/04/17 00:02:57;;;;;;;10.23;5.68;;;;;;;;;;5389868;26;20447;-62
2024/04/17 00:05:23;;;;;;;9.90;6.57;;;;;;;;;;5389708;26;20007;-62
2024/04/17 00:07:48;;;;;;;11.27;6.63;;;;;;;;;;5389905;26;20000;-62
2024/04/17 00:10:13;;;;;;;12.77;7.35;;;;;;;;;;5389646;26;20069;-61
2024/04/17 00:12:39;;;;;;;12.50;7.03;;;;;;;;;;5389681;26;20008;-61
2024/04/17 00:15:04;;;;;;;10.45;6.10;;;;;;;;;;5389429;26;20077;-62
2024/04/17 00:17:30;;;;;;;12.48;6.45;;;;;;;;;;5358351;26;20377;-61
2024/04/17 00:19:55;;;;;;;8.85;5.85;;;;;;;;;;5389605;26;20430;-55
2024/04/17 00:22:20;;;;;;;11.35;6.70;;;;;;;;;;5388713;26;20446;-54
2024/04/17 00:24:46;;;;;;;8.75;6.05;;;;;;;;;;5388565;26;19992;-54
2024/04/17 00:27:11;;;;;;;13.75;7.80;;;;;;;;;;5389285;26;19996;-54
2024/04/17 00:29:36;;;;;;;12.77;7.13;;;;;;;;;;5389273;26;20066;-55
2024/04/17 00:32:05;;;;;;;10.52;7.35;;;;;;;;;;5358272;26;19996;-55
2024/04/17 00:34:30;;;;;;;11.57;7.20;;;;;;;;;;5357909;26;20012;-55
2024/04/17 00:36:56;;;;;;;12.20;7.00;;;;;;;;;;5389099;26;20070;-55
2024/04/17 00:39:22;;;;;;;9.43;5.95;;;;;;;;;;5389316;26;20069;-55
2024/04/17 00:41:48;;;;;;;9.30;6.07;;;;;;;;;;5388918;26;20364;-54
2024/04/17 00:44:13;;;;;;;11.13;6.88;;;;;;;;;;5389101;26;20008;-54
2024/04/17 00:46:39;;;;;;;10.30;6.18;;;;;;;;;;5386285;26;20439;-54
2024/04/17 00:49:04;;;;;;;12.73;5.97;;;;;;;;;;5384955;26;20011;-55
2024/04/17 00:51:30;;;;;;;8.82;5.93;;;;;;;;;;5384998;26;20443;-54
2024/04/17 00:53:55;;;;;;;9.52;5.93;;;;;;;;;;5384779;26;20011;-54
2024/04/17 00:56:21;;;;;;;10.30;6.25;;;;;;;;;;5385229;26;20336;-54
2024/04/17 00:58:46;;;;;;;11.18;6.03;;;;;;;;;;5385003;26;20446;-54
2024/04/17 01:01:11;;;;;;;11.18;6.13;;;;;;;;;;5384955;26;20445;-54
2024/04/17 01:03:37;;;;;;;9.57;5.97;;;;;;;;;;5354001;26;20000;-54
2024/04/17 01:06:02;;;;;;;9.65;6.05;;;;;;;;;;5385050;26;19996;-54
2024/04/17 01:08:28;;;;;;;12.20;5.95;;;;;;;;;;5384615;26;20008;-54
2024/04/17 01:11:03;;;;;;;12.05;6.13;;;;;;;;;;5384665;26;20003;-61
2024/04/17 01:13:28;;;;;;;10.82;5.97;;;;;;;;;;5384581;26;20000;-61
2024/04/17 01:15:55;;;;;;;10.75;6.82;;;;;;;;;;5384780;26;20049;-61
2024/04/17 01:18:21;;;;;;;11.30;6.93;;;;;;;;;;5384518;26;20095;-61
2024/04/17 01:20:46;;;;;;;16.65;8.60;;;;;;;;;;5384469;26;20442;-61
2024/04/17 01:23:12;;;;;;;40.22;15.45;;;;;;;;;;5384469;26;20000;-61
2024/04/17 01:25:37;;;;;;;16.85;7.55;;;;;;;;;;5384668;26;20026;-61
2024/04/17 01:28:02;;;;;;;8.77;4.82;;;;;;;;;;5384624;26;20007;-61
2024/04/17 01:30:28;;;;;;;18.60;8.95;;;;;;;;;;5384456;26;19997;-61
2024/04/17 01:32:54;;;;;;;10.85;5.90;;;;;;;;;;5384498;26;20361;-60
2024/04/17 01:35:19;;;;;;;13.30;6.93;;;;;;;;;;5384348;26;20015;-61
2024/04/17 01:37:44;;;;;;;13.95;6.97;;;;;;;;;;5384248;26;20073;-60
2024/04/17 01:40:10;;;;;;;16.23;7.78;;;;;;;;;;5383872;26;20000;-61
2024/04/17 01:42:36;;;;;;;19.48;9.52;;;;;;;;;;5383347;26;20010;-60
2024/04/17 01:45:01;;;;;;;13.70;7.45;;;;;;;;;;5383637;26;20011;-61
2024/04/17 01:47:26;;;;;;;16.55;7.68;;;;;;;;;;5383949;26;20023;-60
2024/04/17 01:49:52;;;;;;;11.25;6.47;;;;;;;;;;5384376;26;20000;-60
2024/04/17 01:52:17;;;;;;;10.35;5.28;;;;;;;;;;5384118;26;20073;-60
2024/04/17 01:54:43;;;;;;;5.95;4.50;;;;;;;;;;5383894;26;20070;-60
2024/04/17 01:57:09;;;;;;;6.93;4.60;;;;;;;;;;5384295;26;20419;-60
2024/04/17 01:59:34;;;;;;;7.38;4.95;;;;;;;;;;5383857;26;20000;-60
2024/04/17 02:01:59;;;;;;;8.68;5.10;;;;;;;;;;5384074;26;20000;-61
2024/04/17 02:04:25;;;;;;;7.80;5.72;;;;;;;;;;5384130;26;19996;-61
2024/04/17 02:06:50;;;;;;;11.55;5.70;;;;;;;;;;5383979;26;20008;-61
2024/04/17 02:09:15;;;;;;;7.32;4.85;;;;;;;;;;5384117;26;20002;-61
2024/04/17 02:11:41;;;;;;;5.65;4.68;;;;;;;;;;5383791;26;19996;-61
2024/04/17 02:14:06;;;;;;;4.78;3.85;;;;;;;;;;5383848;26;19996;-61
2024/04/17 02:16:32;;;;;;;6.38;4.40;;;;;;;;;;5383705;26;20000;-61
2024/04/17 02:18:57;;;;;;;8.65;4.40;;;;;;;;;;5383568;26;20014;-55
2024/04/17 02:21:22;;;;;;;8.35;4.68;;;;;;;;;;5383952;26;20069;-61
2024/04/17 02:23:48;;;;;;;7.38;4.20;;;;;;;;;;5352835;26;20000;-61
2024/04/17 02:26:14;;;;;;;7.03;4.68;;;;;;;;;;5383621;26;20000;-61
2024/04/17 02:28:40;;;;;;;7.28;4.63;;;;;;;;;;5383767;26;20007;-61
2024/04/17 02:31:05;;;;;;;9.05;4.03;;;;;;;;;;5352821;26;19993;-60
2024/04/17 02:33:31;;;;;;;7.05;4.90;;;;;;;;;;5383478;26;20069;-60
2024/04/17 02:35:56;;;;;;;9.65;5.15;;;;;;;;;;5383301;26;20003;-61
2024/04/17 02:38:22;;;;;;;7.80;5.43;;;;;;;;;;5383750;26;20398;-61
2024/04/17 02:40:47;;;;;;;8.25;4.95;;;;;;;;;;5383390;26;20361;-60
2024/04/17 02:43:12;;;;;;;7.18;4.50;;;;;;;;;;5383425;26;20449;-60
2024/04/17 02:45:39;;;;;;;7.00;4.72;;;;;;;;;;5383528;26;20320;-61
2024/04/17 02:48:05;;;;;;;8.55;4.50;;;;;;;;;;5383116;26;20003;-62
2024/04/17 02:50:30;;;;;;;10.18;5.57;;;;;;;;;;5383346;26;20003;-61
2024/04/17 02:52:56;;;;;;;11.13;5.90;;;;;;;;;;5383218;26;20003;-54
2024/04/17 02:55:23;;;;;;;10.07;5.10;;;;;;;;;;5383166;26;20013;-54
2024/04/17 02:57:48;;;;;;;7.95;5.43;;;;;;;;;;5383146;26;20069;-54
2024/04/17 03:00:16;;;;;;;5.63;4.28;;;;;;;;;;5383467;26;19996;-55
2024/04/17 03:02:42;;;;;;;6.22;4.40;;;;;;;;;;5352104;26;20046;-54
2024/04/17 03:05:07;;;;;;;5.25;3.80;;;;;;;;;;5383149;26;20004;-54
2024/04/17 03:07:32;;;;;;;6.65;4.22;;;;;;;;;;5383355;26;19992;-54
2024/04/17 03:09:58;;;;;;;8.20;5.07;;;;;;;;;;5381894;26;20072;-55
2024/04/17 03:12:23;;;;;;;8.15;5.13;;;;;;;;;;5383194;26;20007;-53
2024/04/17 03:14:49;;;;;;;8.68;5.78;;;;;;;;;;5383144;26;20011;-53
2024/04/17 03:17:14;;;;;;;8.50;5.78;;;;;;;;;;5383218;26;20005;-53
2024/04/17 03:19:39;;;;;;;8.70;5.65;;;;;;;;;;5382761;26;19996;-60
2024/04/17 03:22:05;;;;;;;5.68;4.88;;;;;;;;;;5382659;26;20070;-60
2024/04/17 03:24:30;;;;;;;7.20;4.75;;;;;;;;;;5352091;26;20012;-60
2024/04/17 03:26:56;;;;;;;6.95;5.13;;;;;;;;;;5351855;26;20003;-60
2024/04/17 03:29:21;;;;;;;11.88;6.47;;;;;;;;;;5382720;26;20327;-60
2024/04/17 03:31:47;;;;;;;16.83;8.52;;;;;;;;;;5382471;26;20007;-53
2024/04/17 03:34:14;;;;;;;18.13;8.85;;;;;;;;;;5382673;26;20000;-53
2024/04/17 03:36:39;;;;;;;15.80;8.55;;;;;;;;;;5382554;26;20000;-53
2024/04/17 03:39:04;;;;;;;14.40;7.85;;;;;;;;;;5382457;26;20346;-53
2024/04/17 03:41:30;;;;;;;11.40;6.95;;;;;;;;;;5382642;26;19997;-54
2024/04/17 03:43:55;;;;;;;11.10;7.25;;;;;;;;;;5381272;26;20017;-54
2024/04/17 03:46:20;;;;;;;12.38;7.22;;;;;;;;;;5380609;26;20011;-54
2024/04/17 03:48:47;;;;;;;12.43;6.60;;;;;;;;;;5379486;26;20004;-54
2024/04/17 03:51:12;;;;;;;10.55;6.80;;;;;;;;;;5382311;26;20000;-54
2024/04/17 03:53:37;;;;;;;9.90;6.53;;;;;;;;;;5382565;26;20431;-54
2024/04/17 03:56:03;;;;;;;10.15;5.95;;;;;;;;;;5382486;26;20015;-54
2024/04/17 03:58:29;;;;;;;11.32;6.13;;;;;;;;;;5351235;26;20099;-54
2024/04/17 04:00:54;;;;;;;10.10;6.18;;;;;;;;;;5379726;26;20008;-54
2024/04/17 04:03:19;;;;;;;8.50;6.15;;;;;;;;;;5378735;26;20035;-53
2024/04/17 04:05:45;;;;;;;11.02;6.00;;;;;;;;;;5378537;26;20003;-51
2024/04/17 04:08:11;;;;;;;8.10;5.95;;;;;;;;;;5378892;26;19993;-51
2024/04/17 04:10:36;;;;;;;10.45;5.97;;;;;;;;;;5378828;26;19996;-52
2024/04/17 04:13:01;;;;;;;11.48;5.60;;;;;;;;;;5378913;26;20338;-53
2024/04/17 04:15:28;;;;;;;8.00;5.28;;;;;;;;;;5378687;26;20008;-51
2024/04/17 04:17:53;;;;;;;9.35;5.78;;;;;;;;;;5381675;26;20001;-54
2024/04/17 04:20:18;;;;;;;11.18;7.47;;;;;;;;;;5381883;26;20042;-54
2024/04/17 04:22:44;;;;;;;15.05;9.05;;;;;;;;;;5352687;26;20065;-51
2024/04/17 04:25:10;;;;;;;25.90;16.98;;;;;;;;;;5354558;26;20004;-51
2024/04/17 04:27:35;;;;;;;15.98;10.20;;;;;;;;;;5385283;26;20004;-51
2024/04/17 04:30:00;;;;;;;12.10;8.50;;;;;;;;;;5385065;26;19993;-51
2024/04/17 04:32:26;;;;;;;10.15;6.30;;;;;;;;;;5385165;26;20053;-52
2024/04/17 04:34:51;;;;;;;10.10;6.47;;;;;;;;;;5385390;26;20024;-51
2024/04/17 04:37:17;;;;;;;7.90;6.05;;;;;;;;;;5385252;26;20011;-51
2024/04/17 04:39:42;;;;;;;8.00;5.65;;;;;;;;;;5354230;26;19999;-51
2024/04/17 04:42:07;;;;;;;7.55;5.55;;;;;;;;;;5384973;26;20491;-51
2024/04/17 04:44:33;;;;;;;9.45;5.30;;;;;;;;;;5385277;26;20076;-51
2024/04/17 04:47:01;;;;;;;7.32;5.30;;;;;;;;;;5385193;26;20335;-54
2024/04/17 04:49:26;;;;;;;6.60;4.90;;;;;;;;;;5385576;26;20032;-51
2024/04/17 04:51:52;;;;;;;10.07;5.72;;;;;;;;;;5385233;26;19996;-51
2024/04/17 04:54:17;;;;;;;9.82;5.45;;;;;;;;;;5385496;26;20007;-51
2024/04/17 04:56:43;;;;;;;9.10;5.63;;;;;;;;;;5384961;26;19996;-52
2024/04/17 04:59:08;;;;;;;6.80;5.03;;;;;;;;;;5354640;26;20000;-51
2024/04/17 05:01:33;;;;;;;9.23;5.60;;;;;;;;;;5385488;26;19996;-52
2024/04/17 05:03:59;;;;;;;9.23;6.35;;;;;;;;;;5385381;26;20011;-54
2024/04/17 05:06:24;;;;;;;8.93;7.03;;;;;;;;;;5385405;26;19992;-54
2024/04/17 05:08:50;;;;;;;10.48;6.25;;;;;;;;;;5399132;21;20074;-55
2024/04/17 05:11:15;;;;;;;9.05;6.20;;;;;;;;;;5376764;21;20466;-63
2024/04/17 05:13:40;;;;;;;6.63;4.97;;;;;;;;;;5316210;26;19996;-56
2024/04/17 05:16:06;;;;;;;7.13;5.10;;;;;;;;;;5346431;26;19993;-61
2024/04/17 05:18:41;;;;;;;8.25;4.90;;;;;;;;;;5356354;21;20016;-55
2024/04/17 05:21:07;;;;;;;7.70;4.45;;;;;;;;;;5335504;26;20067;-56
2024/04/17 05:23:32;;;;;;;5.80;4.13;;;;;;;;;;5349527;26;20485;-56
2024/04/17 05:25:57;;;;;;;5.90;4.20;;;;;;;;;;5349563;26;19993;-56
2024/04/17 05:28:23;;;;;;;5.97;4.22;;;;;;;;;;5349492;26;20330;-55
2024/04/17 05:30:55;;;;;;;4.53;3.72;;;;;;;;;;5349603;26;19993;-55
2024/04/17 05:33:20;;;;;;;4.05;3.63;;;;;;;;;;5349072;26;20008;-55
2024/04/17 05:35:46;;;;;;;6.03;4.32;;;;;;;;;;5349572;26;20001;-55
2024/04/17 05:38:11;;;;;;;4.57;4.13;;;;;;;;;;5349588;26;20012;-55
2024/04/17 05:40:37;;;;;;;7.03;4.95;;;;;;;;;;5349610;26;20063;-55
2024/04/17 05:43:02;;;;;;;4.95;4.45;;;;;;;;;;5349510;26;20001;-56
2024/04/17 05:45:27;;;;;;;4.30;3.78;;;;;;;;;;5349299;26;20004;-56
2024/04/17 05:47:53;;;;;;;5.57;4.80;;;;;;;;;;5346727;26;20534;-56
2024/04/17 05:50:19;;;;;;;5.63;4.72;;;;;;;;;;5314664;26;20443;-56
2024/04/17 05:52:44;;;;;;;4.47;3.97;;;;;;;;;;5343944;26;19993;-62
2024/04/17 05:55:09;;;;;;;5.97;4.20;;;;;;;;;;5342657;26;20364;-63
2024/04/17 05:57:35;;;;;;;4.65;4.25;;;;;;;;;;5345504;26;19992;-62
2024/04/17 06:00:00;;;;;;;4.32;4.03;;;;;;;;;;5345657;26;19989;-63
2024/04/17 06:02:26;;;;;;;4.53;4.05;;;;;;;;;;5345266;26;19992;-63
2024/04/17 06:04:51;;;;;;;4.85;3.90;;;;;;;;;;5346796;26;19992;-62
2024/04/17 06:07:16;;;;;;;4.07;3.78;;;;;;;;;;5318721;26;19997;-62
2024/04/17 06:09:42;;;;;;;4.22;3.72;;;;;;;;;;5348249;26;20016;-63
2024/04/17 06:12:07;;;;;;;3.72;3.40;;;;;;;;;;5348863;26;19993;-62
2024/04/17 06:14:33;;;;;;;5.43;4.13;;;;;;;;;;5318161;26;20059;-63
2024/04/17 06:16:58;;;;;;;4.38;3.97;;;;;;;;;;5348890;26;20070;-62
2024/04/17 06:19:24;;;;;;;3.80;3.50;;;;;;;;;;5366948;26;20357;-63
2024/04/17 06:21:49;;;;;;;3.92;3.58;;;;;;;;;;5418941;26;20069;-62
2024/04/17 06:24:15;;;;;;;4.60;3.95;;;;;;;;;;5419078;26;19992;-62
2024/04/17 06:26:41;;;;;;;4.15;3.70;;;;;;;;;;5419232;26;20006;-63
2024/04/17 06:29:06;;;;;;;4.10;3.70;;;;;;;;;;5388057;26;19999;-63
2024/04/17 06:31:32;;;;;;;4.65;3.75;;;;;;;;;;5419172;26;20011;-62
2024/04/17 06:33:57;;;;;;;10.30;6.35;;;;;;;;;;5419573;26;20000;-62
2024/04/17 06:36:23;;;;;;;9.82;7.63;;;;;;;;;;5419162;26;20006;-62
2024/04/17 06:38:48;;;;;;;6.72;4.18;;;;;;;;;;5419222;26;20000;-63
2024/04/17 06:41:14;;;;;;;4.32;3.92;;;;;;;;;;5419168;26;20077;-63
2024/04/17 06:43:39;;;;;;;6.35;4.82;;;;;;;;;;5419086;26;20034;-62
2024/04/17 06:46:04;;;;;;;4.60;4.25;;;;;;;;;;5417615;26;20003;-62
2024/04/17 06:48:30;;;;;;;4.55;4.25;;;;;;;;;;5419067;26;20009;-62
2024/04/17 06:50:56;;;;;;;5.18;4.00;;;;;;;;;;5418956;26;19999;-62
2024/04/17 06:53:21;;;;;;;4.80;4.32;;;;;;;;;;5419033;26;20479;-63
2024/04/17 06:55:46;;;;;;;4.57;4.18;;;;;;;;;;5418964;26;20418;-62
2024/04/17 06:58:12;;;;;;;5.07;4.25;;;;;;;;;;5418906;26;20003;-62
2024/04/17 07:00:39;;;;;;;4.68;3.70;;;;;;;;;;5418909;26;20006;-62
2024/04/17 07:03:04;;;;;;;4.85;4.38;;;;;;;;;;5418880;26;20073;-62
2024/04/17 07:05:30;;;;;;;5.03;4.60;;;;;;;;;;5418626;26;20421;-63
2024/04/17 07:07:55;;;;;;;5.95;4.60;;;;;;;;;;5387554;26;20006;-62
2024/04/17 07:10:21;;;;;;;4.90;4.45;;;;;;;;;;5418743;26;19992;-56
2024/04/17 07:12:47;;;;;;;4.90;4.10;;;;;;;;;;5418687;26;20002;-55
2024/04/17 07:15:12;;;;;;;4.63;4.22;;;;;;;;;;5418711;26;20353;-56
2024/04/17 07:17:37;;;;;;;5.03;4.55;;;;;;;;;;5418663;26;20326;-55
2024/04/17 07:20:03;;;;;;;6.57;5.40;;;;;;;;;;5418253;26;20003;-56
2024/04/17 07:22:29;;;;;;;5.30;4.63;;;;;;;;;;5418322;26;20006;-55
2024/04/17 07:24:54;;;;;;;5.10;4.63;;;;;;;;;;5418524;26;20078;-62
2024/04/17 07:27:19;;;;;;;4.18;3.88;;;;;;;;;;5387054;26;20009;-62
2024/04/17 07:29:45;;;;;;;4.80;4.40;;;;;;;;;;5418502;26;20003;-62
2024/04/17 07:32:10;;;;;;;6.13;4.97;;;;;;;;;;5418358;26;19991;-62
2024/04/17 07:34:36;;;;;;;5.80;4.70;;;;;;;;;;5418099;26;20045;-63
2024/04/17 07:37:02;;;;;;;4.85;4.45;;;;;;;;;;5418320;26;20467;-62
2024/04/17 07:39:28;;;;;;;4.55;4.20;;;;;;;;;;5418028;26;20010;-62
2024/04/17 07:41:53;;;;;;;4.45;4.05;;;;;;;;;;5418195;26;20313;-62
2024/04/17 07:44:19;;;;;;;4.80;4.32;;;;;;;;;;5418176;26;20006;-63
2024/04/17 07:46:44;;;;;;;4.60;4.30;;;;;;;;;;5418138;26;20008;-62
2024/04/17 07:49:10;;;;;;;4.07;3.75;;;;;;;;;;5418131;26;19992;-62
2024/04/17 07:51:35;;;;;;;4.22;3.90;;;;;;;;;;5418053;26;19999;-62
2024/04/17 07:54:00;;;;;;;4.90;4.60;;;;;;;;;;5418013;26;19999;-62
2024/04/17 07:56:26;;;;;;;4.43;4.03;;;;;;;;;;5419188;26;20041;-63
2024/04/17 07:58:52;;;;;;;3.88;3.55;;;;;;;;;;5390573;26;19996;-62
2024/04/17 08:01:18;;;;;;;4.70;4.30;;;;;;;;;;5421742;26;19999;-62
2024/04/17 08:03:44;;;;;;;4.65;4.25;;;;;;;;;;5421381;26;20003;-62
2024/04/17 08:06:11;;;;;;;4.15;3.80;;;;;;;;;;5421435;26;20010;-63
2024/04/17 08:08:36;;;;;;;5.00;4.65;;;;;;;;;;5421441;26;20003;-62
2024/04/17 08:11:02;;;;;;;5.97;5.47;;;;;;;;;;5421144;26;20311;-63
2024/04/17 08:13:27;;;;;;;4.90;4.50;;;;;;;;;;5421354;26;20007;-62
2024/04/17 08:15:53;;;;;;;4.50;4.10;;;;;;;;;;5421200;26;20080;-62
2024/04/17 08:18:18;;;;;;;3.63;3.33;;;;;;;;;;5421024;26;20011;-62
2024/04/17 08:20:44;;;;;;;5.53;3.95;;;;;;;;;;5420553;26;20429;-62
2024/04/17 08:23:10;;;;;;;6.05;4.55;;;;;;;;;;5390068;26;20003;-62
2024/04/17 08:25:35;;;;;;;4.53;3.70;;;;;;;;;;5421172;26;19999;-62
2024/04/17 08:28:01;;;;;;;4.88;4.45;;;;;;;;;;5421160;26;20074;-62
2024/04/17 08:30:27;;;;;;;5.30;4.80;;;;;;;;;;5389551;26;20007;-62
2024/04/17 08:32:53;;;;;;;4.28;3.90;;;;;;;;;;5420973;26;20010;-62
2024/04/17 08:35:18;;;;;;;5.03;4.47;;;;;;;;;;5421090;26;20011;-62
2024/04/17 08:37:45;;;;;;;4.93;4.20;;;;;;;;;;5420754;26;19999;-62
2024/04/17 08:40:11;;;;;;;4.72;3.75;;;;;;;;;;5420893;26;20031;-62
2024/04/17 08:42:40;;;;;;;3.75;3.05;;;;;;;;;;5420770;26;19999;-62
2024/04/17 08:45:09;;;;;;;3.22;2.95;;;;;;;;;;5420503;26;20003;-63
2024/04/17 08:47:35;;;;;;;3.17;2.92;;;;;;;;;;5420445;26;19995;-62
2024/04/17 08:50:02;;;;;;;3.88;3.58;;;;;;;;;;5420481;26;20003;-62
2024/04/17 08:52:27;;;;;;;3.85;3.55;;;;;;;;;;5420780;26;20441;-62
2024/04/17 08:54:54;;;;;;;4.10;3.63;;;;;;;;;;5420494;26;20000;-62
2024/04/17 08:57:20;;;;;;;3.70;3.50;;;;;;;;;;5420473;26;20006;-62
2024/04/17 08:59:46;;;;;;;3.05;2.80;;;;;;;;;;5420400;26;19996;-62
2024/04/17 09:02:13;;;;;;;3.22;3.03;;;;;;;;;;5360077;26;20010;-62
2024/04/17 09:04:39;;;;;;;3.30;2.92;;;;;;;;;;5420597;26;20000;-62
2024/04/17 09:07:06;;;;;;;3.40;3.15;;;;;;;;;;5420094;26;19995;-62
2024/04/17 09:09:32;;;;;;;3.15;2.95;;;;;;;;;;5419791;26;20000;-62
2024/04/17 09:11:58;;;;;;;3.65;3.33;;;;;;;;;;5388884;26;20456;-62
2024/04/17 09:14:24;;;;;;;3.78;3.30;;;;;;;;;;5420103;26;20039;-62
2024/04/17 09:16:49;;;;;;;4.05;3.65;;;;;;;;;;5420052;26;19991;-62
2024/04/17 09:19:14;;;;;;;3.45;3.15;;;;;;;;;;5420017;26;20053;-62
2024/04/17 09:21:40;;;;;;;4.93;3.30;;;;;;;;;;5420612;26;20422;-62
2024/04/17 09:24:05;;;;;;;3.08;2.80;;;;;;;;;;5420620;26;20002;-62
2024/04/17 09:26:31;;;;;;;2.83;2.63;;;;;;;;;;5420318;26;19991;-62
2024/04/17 09:28:56;;;;;;;3.25;2.95;;;;;;;;;;5420535;26;20073;-62
2024/04/17 09:31:22;;;;;;;3.25;2.95;;;;;;;;;;5420071;26;20072;-62
2024/04/17 09:33:48;;;;;;;3.25;2.95;;;;;;;;;;5420484;26;20082;-62
2024/04/17 09:36:13;;;;;;;3.13;2.83;;;;;;;;;;5420436;26;20006;-62
2024/04/17 09:38:39;;;;;;;3.80;3.50;;;;;;;;;;5420457;26;20000;-62
2024/04/17 09:41:05;;;;;;;2.88;2.67;;;;;;;;;;5420354;26;20007;-62
2024/04/17 09:43:31;;;;;;;3.80;2.80;;;;;;;;;;5420327;26;19999;-62
2024/04/17 09:46:00;;;;;;;3.38;2.83;;;;;;;;;;5420117;26;20010;-62
2024/04/17 09:48:30;;;;;;;3.15;2.95;;;;;;;;;;5420206;26;20076;-62
2024/04/17 09:51:02;;;;;;;2.93;2.73;;;;;;;;;;5420272;26;20010;-62
2024/04/17 09:53:35;;;;;;;3.33;3.10;;;;;;;;;;5420134;26;20229;-62
2024/04/17 09:56:02;;;;;;;3.95;2.80;;;;;;;;;;5420176;26;20036;-62
2024/04/17 09:58:32;;;;;;;3.17;2.95;;;;;;;;;;5420161;26;20011;-62
2024/04/17 10:01:00;;;;;;;2.88;2.67;;;;;;;;;;5420203;26;20069;-62
2024/04/17 10:03:27;;;;;;;2.88;2.67;;;;;;;;;;5388867;26;20010;-62
2024/04/17 10:05:53;;;;;;;2.83;2.63;;;;;;;;;;5420222;26;20418;-62
2024/04/17 10:08:19;;;;;;;3.33;2.92;;;;;;;;;;5419745;26;19999;-64
2024/04/17 10:10:45;;;;;;;3.10;2.83;;;;;;;;;;5419950;26;19995;-62
2024/04/17 10:13:11;;;;;;;2.72;2.55;;;;;;;;;;5388666;26;20017;-62
2024/04/17 10:15:37;;;;;;;2.67;2.47;;;;;;;;;;5419905;26;20003;-62
2024/04/17 10:18:02;;;;;;;2.75;2.55;;;;;;;;;;5419512;26;19991;-62
2024/04/17 10:20:29;;;;;;;2.55;2.35;;;;;;;;;;5419041;26;20442;-62
2024/04/17 10:23:04;;;;;;;2.92;2.58;;;;;;;;;;5388479;26;20069;-62
2024/04/17 10:25:30;;;;;;;2.83;2.63;;;;;;;;;;5419278;26;20000;-62
2024/04/17 10:28:00;;;;;;;2.33;2.20;;;;;;;;;;5419766;26;20010;-62
2024/04/17 10:30:26;;;;;;;2.35;2.15;;;;;;;;;;5419399;26;20007;-62
2024/04/17 10:32:51;;;;;;;2.20;2.00;;;;;;;;;;5419341;26;20003;-62
2024/04/17 10:35:17;;;;;;;2.70;2.50;;;;;;;;;;5419349;26;20007;-62
2024/04/17 10:37:47;;;;;;;2.13;2.03;;;;;;;;;;5419265;26;20006;-62
2024/04/17 10:40:12;;;;;;;1.88;1.77;;;;;;;;;;5419521;26;20064;-62
2024/04/17 10:42:38;;;;;;;1.55;1.45;;;;;;;;;;5419049;26;20003;-62
2024/04/17 10:45:05;;;;;;;2.13;1.92;;;;;;;;;;5419179;26;19995;-62
2024/04/17 10:47:32;;;;;;;1.77;1.67;;;;;;;;;;5387884;26;19999;-62
2024/04/17 10:49:59;;;;;;;1.92;1.83;;;;;;;;;;5419053;26;19995;-62
2024/04/17 10:52:26;;;;;;;1.60;1.45;;;;;;;;;;5419378;26;20038;-62
2024/04/17 10:54:55;;;;;;;1.65;1.55;;;;;;;;;;5418711;26;19995;-62
2024/04/17 10:57:21;;;;;;;1.85;1.75;;;;;;;;;;5419064;26;20361;-62
2024/04/17 10:59:47;;;;;;;2.35;1.50;;;;;;;;;;5419036;26;19996;-62
2024/04/17 11:02:13;;;;;;;1.92;1.63;;;;;;;;;;5387641;26;20023;-62
2024/04/17 11:04:38;;;;;;;2.00;1.60;;;;;;;;;;5418981;26;20445;-62
2024/04/17 11:07:06;;;;;;;2.47;1.65;;;;;;;;;;5418866;26;20003;-62
2024/04/17 11:09:32;;;;;;;1.55;1.45;;;;;;;;;;5418659;26;20421;-62
2024/04/17 11:11:57;;;;;;;2.58;1.60;;;;;;;;;;5418750;26;20000;-62
2024/04/17 11:14:23;;;;;;;2.45;1.40;;;;;;;;;;5418811;26;19999;-62
2024/04/17 11:16:48;;;;;;;1.58;1.48;;;;;;;;;;5418702;26;20449;-62
2024/04/17 11:19:14;;;;;;;1.55;1.45;;;;;;;;;;5418199;26;20022;-62
2024/04/17 11:21:39;;;;;;;1.90;1.60;;;;;;;;;;5418603;26;19995;-62
2024/04/17 11:24:05;;;;;;;2.50;1.85;;;;;;;;;;5418639;26;20444;-62
2024/04/17 11:26:31;;;;;;;1.77;1.67;;;;;;;;;;5418568;26;19991;-62
2024/04/17 11:28:57;;;;;;;2.15;1.95;;;;;;;;;;5418466;26;19999;-60
2024/04/17 11:31:23;;;;;;;2.13;1.90;;;;;;;;;;5386100;26;20033;-60
2024/04/17 11:33:48;;;;;;;1.70;1.60;;;;;;;;;;5418038;26;20002;-60
2024/04/17 11:36:14;;;;;;;1.58;1.48;;;;;;;;;;5418332;26;20414;-60
2024/04/17 11:38:41;;;;;;;1.48;1.38;;;;;;;;;;5418414;26;20011;-60
2024/04/17 11:41:06;;;;;;;1.45;1.35;;;;;;;;;;5418377;26;20416;-60
2024/04/17 11:43:32;;;;;;;1.60;1.50;;;;;;;;;;5418222;26;20008;-62
2024/04/17 11:45:57;;;;;;;1.80;1.70;;;;;;;;;;5418230;26;20032;-62
2024/04/17 11:48:23;;;;;;;1.60;1.50;;;;;;;;;;5418200;26;20414;-62
2024/04/17 11:50:51;;;;;;;1.98;1.60;;;;;;;;;;5417995;26;20000;-62
2024/04/17 11:53:16;;;;;;;1.23;1.13;;;;;;;;;;5418074;26;20445;-62
2024/04/17 11:55:42;;;;;;;1.35;1.25;;;;;;;;;;5418035;26;20326;-62
2024/04/17 11:58:07;;;;;;;1.15;1.05;;;;;;;;;;5418011;26;20101;-62
2024/04/17 12:00:33;;;;;;;1.30;1.10;;;;;;;;;;5417950;26;19999;-62
2024/04/17 12:02:58;;;;;;;1.25;1.13;;;;;;;;;;5418010;26;20011;-62
2024/04/17 12:05:23;;;;;;;1.20;1.20;;;;;;;;;;5418144;26;19991;-62
2024/04/17 12:07:50;;;;;;;1.80;1.70;;;;;;;;;;5417927;26;20008;-61
2024/04/17 12:10:17;;;;;;;1.38;1.25;;;;;;;;;;5417764;26;19995;-62
2024/04/17 12:12:42;;;;;;;1.52;1.42;;;;;;;;;;5417697;26;20004;-62
2024/04/17 12:15:07;;;;;;;1.30;1.20;;;;;;;;;;5417680;26;20006;-61
2024/04/17 12:17:33;;;;;;;1.65;1.50;;;;;;;;;;5417247;26;20002;-62
2024/04/17 12:19:58;;;;;;;1.23;1.23;;;;;;;;;;5417452;26;20022;-62
2024/04/17 12:22:24;;;;;;;1.85;1.40;;;;;;;;;;5417071;26;19995;-62
2024/04/17 12:27:33;;;;;;;1.65;1.55;;;;;;;;;;5385710;26;20007;-62
2024/04/17 12:30:00;;;;;;;1.30;1.20;;;;;;;;;;5417688;26;20000;-62
2024/04/17 12:32:26;;;;;;;1.30;1.30;;;;;;;;;;5357211;26;20011;-61
2024/04/17 12:34:51;;;;;;;2.17;1.70;;;;;;;;;;5417372;26;20426;-62
2024/04/17 12:37:16;;;;;;;1.50;1.40;;;;;;;;;;5386142;26;20041;-62
2024/04/17 12:39:42;;;;;;;1.38;1.27;;;;;;;;;;5417245;26;19992;-62
2024/04/17 12:42:07;;;;;;;1.58;1.48;;;;;;;;;;5417273;26;20432;-62
2024/04/17 12:44:33;;;;;;;1.55;1.45;;;;;;;;;;5388806;26;19999;-61
2024/04/17 12:46:58;;;;;;;1.83;1.52;;;;;;;;;;5420956;26;20011;-61
2024/04/17 12:49:23;;;;;;;2.03;1.40;;;;;;;;;;5420809;26;20313;-54
2024/04/17 12:51:49;;;;;;;1.50;1.40;;;;;;;;;;5420555;26;20427;-54
2024/04/17 12:54:15;;;;;;;1.83;1.50;;;;;;;;;;5389325;26;20430;-55
2024/04/17 12:56:41;;;;;;;1.70;1.60;;;;;;;;;;5420549;26;20392;-54
2024/04/17 12:59:07;;;;;;;1.60;1.50;;;;;;;;;;5420710;26;20064;-55
2024/04/17 13:01:33;;;;;;;1.55;1.45;;;;;;;;;;5389406;26;20006;-54
2024/04/17 13:04:00;;;;;;;1.90;1.70;;;;;;;;;;5420510;26;20015;-54
2024/04/17 13:06:25;;;;;;;1.60;1.50;;;;;;;;;;5420327;26;20438;-55
2024/04/17 13:08:53;;;;;;;1.85;1.70;;;;;;;;;;5420508;26;20041;-55
2024/04/17 13:11:18;;;;;;;1.50;1.40;;;;;;;;;;5420118;26;20353;-54
2024/04/17 13:13:44;;;;;;;2.15;1.92;;;;;;;;;;5418589;26;19995;-55
2024/04/17 13:16:09;;;;;;;3.13;2.40;;;;;;;;;;5418947;26;20000;-54
2024/04/17 13:18:37;;;;;;;4.82;2.45;;;;;;;;;;5420425;26;20380;-54
2024/04/17 13:21:02;;;;;;;1.40;1.30;;;;;;;;;;5420190;26;20372;-54
2024/04/17 13:23:28;;;;;;;1.35;1.25;;;;;;;;;;5420033;26;20003;-54
2024/04/17 13:25:57;;;;;;;1.30;1.17;;;;;;;;;;5388927;26;20314;-54
2024/04/17 13:28:23;;;;;;;1.52;0.95;;;;;;;;;;5420317;26;20004;-54
2024/04/17 13:30:58;;;;;;;1.13;1.02;;;;;;;;;;5419586;26;20327;-54
2024/04/17 13:33:23;;;;;;;1.05;0.85;;;;;;;;;;5419811;26;19999;-61
2024/04/17 13:35:56;;;;;;;1.48;1.38;;;;;;;;;;5382180;21;20004;-60
2024/04/17 13:38:22;;;;;;;1.48;1.35;;;;;;;;;;5365897;21;20453;-54
2024/04/17 13:41:29;;;;;;;2.47;1.58;;;;;;;;;;5391252;21;19996;-55
2024/04/17 13:43:55;;;;;;;1.80;1.70;;;;;;;;;;5416167;21;20004;-54
2024/04/17 13:46:23;;;;;;;1.60;1.50;;;;;;;;;;5397274;21;20480;-61
2024/04/17 13:48:48;;;;;;;2.03;1.40;;;;;;;;;;5384608;26;20011;-61
2024/04/17 13:51:15;;;;;;;1.25;1.15;;;;;;;;;;5384617;26;20000;-63
2024/04/17 13:53:42;;;;;;;1.00;0.90;;;;;;;;;;5383783;26;20000;-54
2024/04/17 13:56:14;;;;;;;1.00;0.98;;;;;;;;;;5384028;26;20032;-61
2024/04/17 13:58:39;;;;;;;2.00;1.20;;;;;;;;;;5353354;26;20307;-55
2024/04/17 14:01:05;;;;;;;0.90;0.90;;;;;;;;;;5353493;26;20003;-54
2024/04/17 14:07:20;;;;;;;0.85;0.85;;;;;;;;;;5375469;26;20003;-54
2024/04/17 14:13:25;;;;;;;0.80;0.80;;;;;;;;;;5375760;26;20045;-54
2024/04/17 14:19:26;;;;;;;1.02;1.02;;;;;;;;;;5376909;26;20071;-54
2024/04/17 14:25:27;;;;;;;0.60;0.60;;;;;;;;;;5377147;26;20007;-54
2024/04/17 14:31:28;;;;;;;2.20;1.20;;;;;;;;;;5377239;26;20006;-54
2024/04/17 14:37:29;;;;;;;0.57;0.55;;;;;;;;;;5377417;26;20068;-54
2024/04/17 14:43:33;;;;;;;0.95;0.50;;;;;;;;;;5384855;26;20076;-54
2024/04/17 14:54:03;;;;;;;0.80;0.60;;;;;;;;;;5383333;26;20007;-54
2024/04/17 15:00:07;;;;;;;9.15;6.30;;;;;;;;;;5384638;26;20043;-54
2024/04/17 15:06:08;;;;;;;5.55;4.20;;;;;;;;;;5383164;26;20007;-54
2024/04/17 15:12:09;;;;;;;2.83;2.53;;;;;;;;;;5372221;26;20011;-54
2024/04/17 15:18:10;;;;;;;2.72;2.50;;;;;;;;;;5372386;26;20027;-54
2024/04/17 15:24:16;;;;;;;1.10;1.00;;;;;;;;;;5384313;26;20449;-54
2024/04/17 15:30:17;;;;;;;1.48;1.02;;;;;;;;;;5384149;26;20504;-54